createdAt,value
2022-12-25T00:01:21.662Z,101262.44
2022-12-25T00:03:54.760Z,101261.72
2022-12-25T00:06:27.847Z,101262.44
2022-12-25T00:09:02.150Z,101258.00
2022-12-25T00:11:35.500Z,101254.28
2022-12-25T00:14:08.631Z,101254.59
2022-12-25T00:16:41.407Z,101254.03
2022-12-25T00:19:14.228Z,101257.56
2022-12-25T00:21:47.172Z,101252.50
2022-12-25T00:24:21.435Z,101253.66
2022-12-25T00:26:54.350Z,101261.13
2022-12-25T00:29:28.207Z,101256.56
2022-12-25T00:32:01.098Z,101256.50
2022-12-25T00:34:34.275Z,101254.63
2022-12-25T00:37:07.095Z,101256.56
2022-12-25T00:39:41.453Z,101255.00
2022-12-25T00:42:20.763Z,101244.13
2022-12-25T00:44:53.746Z,101261.25
2022-12-25T00:47:26.652Z,101261.25
2022-12-25T00:49:59.552Z,101251.09
2022-12-25T00:52:32.521Z,101257.47
2022-12-25T00:55:07.159Z,101268.25
2022-12-25T00:57:40.258Z,101264.78
2022-12-25T01:00:15.068Z,101272.03
2022-12-25T01:02:48.098Z,101275.56
2022-12-25T01:05:21.256Z,101274.75
2022-12-25T01:07:54.482Z,101276.84
2022-12-25T01:10:27.759Z,101274.69
2022-12-25T01:13:00.522Z,101262.16
2022-12-25T01:15:33.331Z,101258.16
2022-12-25T01:18:08.050Z,101254.28
2022-12-25T01:20:42.040Z,101255.16
2022-12-25T01:23:15.011Z,101249.94
2022-12-25T01:25:48.976Z,101250.22
2022-12-25T01:28:21.868Z,101259.69
2022-12-25T01:30:54.552Z,101261.25
2022-12-25T01:33:27.679Z,101266.38
2022-12-25T01:36:00.649Z,101266.53
2022-12-25T01:38:33.348Z,101264.53
2022-12-25T01:41:07.738Z,101259.94
2022-12-25T01:44:00.825Z,101269.38
2022-12-25T01:46:35.724Z,101277.97
2022-12-25T01:49:12.903Z,101279.13
2022-12-25T01:51:48.584Z,101281.13
2022-12-25T01:54:26.230Z,101285.47
2022-12-25T01:57:03.236Z,101279.97
2022-12-25T01:59:36.501Z,101274.59
2022-12-25T02:02:09.598Z,101269.00
2022-12-25T02:04:47.902Z,101268.66
2022-12-25T02:07:24.289Z,101263.91
2022-12-25T02:09:57.115Z,101266.69
2022-12-25T02:12:34.956Z,101267.59
2022-12-25T02:15:12.272Z,101265.66
2022-12-25T02:17:54.190Z,101271.13
2022-12-25T02:20:52.618Z,101262.53
2022-12-25T02:24:01.823Z,101259.00
2022-12-25T02:26:53.610Z,101251.56
2022-12-25T02:29:34.109Z,101250.00
2022-12-25T02:32:16.253Z,101246.03
2022-12-25T02:34:53.911Z,101241.78
2022-12-25T02:37:31.814Z,101232.53
2022-12-25T02:40:11.941Z,101230.22
2022-12-25T02:43:09.564Z,101222.75
2022-12-25T02:46:06.615Z,101215.66
2022-12-25T02:49:00.806Z,101211.03
2022-12-25T02:51:56.766Z,101207.44
2022-12-25T02:54:52.360Z,101202.75
2022-12-25T02:57:48.080Z,101195.75
2022-12-25T03:00:38.783Z,101196.22
2022-12-25T03:03:32.359Z,101190.63
2022-12-25T03:06:24.992Z,101195.91
2022-12-25T03:09:21.281Z,101206.72
2022-12-25T03:12:02.348Z,101202.75
2022-12-25T03:14:52.870Z,101203.97
2022-12-25T03:17:26.288Z,101205.13
2022-12-25T03:20:18.414Z,101202.19
2022-12-25T03:23:09.053Z,101198.66
2022-12-25T03:25:59.976Z,101202.53
2022-12-25T03:28:33.065Z,101200.06
2022-12-25T03:31:17.132Z,101193.81
2022-12-25T03:34:23.445Z,101198.66
2022-12-25T03:37:22.696Z,101192.53
2022-12-25T03:40:22.274Z,101185.44
2022-12-25T03:43:17.105Z,101182.63
2022-12-25T03:46:15.807Z,101193.47
2022-12-25T03:49:11.813Z,101195.97
2022-12-25T03:52:07.093Z,101191.22
2022-12-25T03:55:01.382Z,101192.44
2022-12-25T03:57:52.998Z,101195.53
2022-12-25T04:00:43.518Z,101199.06
2022-12-25T04:03:45.592Z,101210.75
2022-12-25T04:06:36.141Z,101203.97
2022-12-25T04:09:26.378Z,101205.25
2022-12-25T04:12:18.433Z,101200.06
2022-12-25T04:15:08.920Z,101212.50
2022-12-25T04:17:59.387Z,101203.13
2022-12-25T04:20:50.130Z,101211.25
2022-12-25T04:23:40.677Z,101213.78
2022-12-25T04:26:31.869Z,101206.06
2022-12-25T04:29:23.853Z,101195.91
2022-12-25T04:32:14.318Z,101198.50
2022-12-25T04:35:04.498Z,101197.75
2022-12-25T04:37:37.568Z,101186.06
2022-12-25T04:40:11.368Z,101178.50
2022-12-25T04:42:44.197Z,101171.66
2022-12-25T04:45:18.626Z,101174.69
2022-12-25T04:47:51.508Z,101171.38
2022-12-25T04:50:24.441Z,101160.44
2022-12-25T04:52:57.891Z,101163.09
2022-12-25T04:55:30.981Z,101160.34
2022-12-25T04:58:03.915Z,101164.25
2022-12-25T05:00:38.300Z,101160.72
2022-12-25T05:03:11.376Z,101161.50
2022-12-25T05:05:44.398Z,101163.16
2022-12-25T05:08:17.170Z,101168.66
2022-12-25T05:10:50.188Z,101167.78
2022-12-25T05:13:23.563Z,101161.84
2022-12-25T05:15:57.977Z,101162.13
2022-12-25T05:18:33.027Z,101161.28
2022-12-25T05:21:06.465Z,101155.94
2022-12-25T05:23:48.719Z,101163.56
2022-12-25T05:26:23.675Z,101160.84
2022-12-25T05:28:56.853Z,101159.25
2022-12-25T05:31:32.428Z,101165.75
2022-12-25T05:34:05.370Z,101163.88
2022-12-25T05:36:38.226Z,101173.47
2022-12-25T05:39:11.077Z,101158.97
2022-12-25T05:41:44.656Z,101158.56
2022-12-25T05:44:18.034Z,101161.41
2022-12-25T05:46:52.870Z,101158.66
2022-12-25T05:49:26.115Z,101154.06
2022-12-25T05:51:59.352Z,101148.00
2022-12-25T05:54:33.363Z,101134.00
2022-12-25T05:57:06.280Z,101135.69
2022-12-25T05:59:39.275Z,101134.81
2022-12-25T06:02:13.402Z,101129.41
2022-12-25T06:04:46.286Z,101126.50
2022-12-25T06:07:19.245Z,101117.56
2022-12-25T06:09:52.049Z,101122.97
2022-12-25T06:12:25.042Z,101122.63
2022-12-25T06:14:58.123Z,101114.47
2022-12-25T06:17:32.352Z,101098.88
2022-12-25T06:20:06.041Z,101097.81
2022-12-25T06:22:39.079Z,101102.13
2022-12-25T06:25:12.161Z,101105.25
2022-12-25T06:27:45.215Z,101098.88
2022-12-25T06:30:18.307Z,101094.19
2022-12-25T06:32:52.499Z,101092.47
2022-12-25T06:35:25.582Z,101094.50
2022-12-25T06:37:58.196Z,101095.31
2022-12-25T06:40:31.113Z,101089.91
2022-12-25T06:43:03.914Z,101088.88
2022-12-25T06:45:37.201Z,101088.56
2022-12-25T06:48:11.596Z,101085.25
2022-12-25T06:50:45.037Z,101080.00
2022-12-25T06:53:17.936Z,101081.22
2022-12-25T06:55:50.854Z,101080.06
2022-12-25T06:58:23.777Z,101072.13
2022-12-25T07:00:58.179Z,101069.09
2022-12-25T07:03:32.575Z,101080.63
2022-12-25T07:06:07.694Z,101078.63
2022-12-25T07:08:40.675Z,101090.00
2022-12-25T07:11:13.555Z,101081.22
2022-12-25T07:13:46.660Z,101090.38
2022-12-25T07:16:20.231Z,101081.72
2022-12-25T07:18:54.480Z,101086.09
2022-12-25T07:21:27.334Z,101095.22
2022-12-25T07:24:00.142Z,101094.28
2022-12-25T07:26:32.899Z,101098.22
2022-12-25T07:29:05.931Z,101101.34
2022-12-25T07:31:39.079Z,101094.19
2022-12-25T07:34:13.364Z,101085.25
2022-12-25T07:36:47.098Z,101094.34
2022-12-25T07:39:20.311Z,101097.94
2022-12-25T07:41:53.382Z,101076.38
2022-12-25T07:44:26.434Z,101090.53
2022-12-25T07:46:59.512Z,101102.19
2022-12-25T07:49:33.423Z,101106.09
2022-12-25T07:52:06.788Z,101105.53
2022-12-25T07:54:39.576Z,101113.81
2022-12-25T07:57:12.526Z,101113.38
2022-12-25T07:59:45.667Z,101102.00
2022-12-25T08:02:19.178Z,101117.28
2022-12-25T08:04:53.924Z,101114.53
2022-12-25T08:07:27.590Z,101121.22
2022-12-25T08:10:00.442Z,101111.78
2022-12-25T08:12:33.207Z,101116.47
2022-12-25T08:15:06.960Z,101102.19
2022-12-25T08:17:39.735Z,101103.00
2022-12-25T08:20:14.610Z,101100.56
2022-12-25T08:22:47.638Z,101107.63
2022-12-25T08:25:20.275Z,101099.41
2022-12-25T08:27:53.087Z,101097.38
2022-12-25T08:30:26.032Z,101099.03
2022-12-25T08:32:58.885Z,101109.56
2022-12-25T08:35:34.503Z,101115.97
2022-12-25T08:38:07.250Z,101113.59
2022-12-25T08:40:40.072Z,101104.16
2022-12-25T08:43:13.019Z,101101.78
2022-12-25T08:45:47.887Z,101112.75
2022-12-25T08:48:20.737Z,101119.03
2022-12-25T08:50:55.116Z,101124.13
2022-12-25T08:53:28.237Z,101123.34
2022-12-25T08:56:04.285Z,101128.31
2022-12-25T08:58:38.076Z,101125.28
2022-12-25T09:01:11.594Z,101135.75
2022-12-25T09:03:44.632Z,101152.78
2022-12-25T09:06:18.593Z,101150.34
2022-12-25T09:08:52.760Z,101155.75
2022-12-25T09:11:28.353Z,101140.72
2022-12-25T09:14:01.650Z,101135.69
2022-12-25T09:16:34.375Z,101144.78
2022-12-25T09:19:07.275Z,101138.06
2022-12-25T09:21:41.384Z,101133.81
2022-12-25T09:24:14.911Z,101131.78
2022-12-25T09:26:47.801Z,101120.09
2022-12-25T09:29:20.504Z,101121.59
2022-12-25T09:31:53.443Z,101121.19
2022-12-25T09:34:26.353Z,101108.63
2022-12-25T09:37:00.448Z,101103.16
2022-12-25T09:39:33.462Z,101106.72
2022-12-25T09:42:13.589Z,101107.47
2022-12-25T09:44:52.111Z,101099.66
2022-12-25T09:47:27.871Z,101091.03
2022-12-25T09:50:06.620Z,101097.22
2022-12-25T09:52:46.011Z,101099.91
2022-12-25T09:55:21.443Z,101092.84
2022-12-25T09:57:57.724Z,101097.53
2022-12-25T10:00:37.324Z,101093.69
2022-12-25T10:03:36.223Z,101086.25
2022-12-25T10:06:14.676Z,101092.19
2022-12-25T10:09:06.133Z,101096.94
2022-12-25T10:11:52.828Z,101088.28
2022-12-25T10:14:35.381Z,101090.56
2022-12-25T10:17:27.530Z,101093.75
2022-12-25T10:20:06.518Z,101089.00
2022-12-25T10:22:43.699Z,101082.78
2022-12-25T10:25:20.752Z,101080.84
2022-12-25T10:27:58.146Z,101095.75
2022-12-25T10:30:32.340Z,101087.19
2022-12-25T10:33:05.261Z,101088.00
2022-12-25T10:35:39.056Z,101075.78
2022-12-25T10:38:15.795Z,101066.06
2022-12-25T10:41:05.988Z,101064.91
2022-12-25T10:43:44.589Z,101056.25
2022-12-25T10:46:18.479Z,101057.84
2022-12-25T10:48:53.898Z,101046.16
2022-12-25T10:51:30.564Z,101025.81
2022-12-25T10:54:05.594Z,101023.56
2022-12-25T10:56:39.705Z,101033.78
2022-12-25T10:59:12.583Z,101011.47
2022-12-25T11:01:45.489Z,101020.47
2022-12-25T11:04:20.195Z,101015.38
2022-12-25T11:07:07.339Z,101004.91
2022-12-25T11:09:40.835Z,101012.72
2022-12-25T11:12:18.806Z,101022.13
2022-12-25T11:14:57.225Z,101019.44
2022-12-25T11:17:30.041Z,101008.13
2022-12-25T11:20:03.516Z,101019.22
2022-12-25T11:22:38.458Z,101011.44
2022-12-25T11:25:15.268Z,100996.59
2022-12-25T11:27:58.326Z,101005.53
2022-12-25T11:30:33.687Z,100996.53
2022-12-25T11:33:12.165Z,101003.59
2022-12-25T11:35:52.859Z,100994.75
2022-12-25T11:38:28.258Z,100995.63
2022-12-25T11:41:05.695Z,100974.56
2022-12-25T11:43:45.877Z,100976.91
2022-12-25T11:46:22.786Z,100962.78
2022-12-25T11:49:00.428Z,100949.38
2022-12-25T11:51:37.108Z,100941.50
2022-12-25T11:54:20.848Z,100928.16
2022-12-25T11:56:54.531Z,100930.53
2022-12-25T11:59:33.955Z,100929.75
2022-12-25T12:02:23.016Z,100941.84
2022-12-25T12:05:09.233Z,100954.84
2022-12-25T12:07:52.868Z,100947.09
2022-12-25T12:10:33.894Z,100956.53
2022-12-25T12:13:27.098Z,100939.28
2022-12-25T12:16:01.507Z,100940.50
2022-12-25T12:18:35.705Z,100947.16
2022-12-25T12:21:20.719Z,100944.00
2022-12-25T12:23:58.529Z,100946.34
2022-12-25T12:26:36.951Z,100940.84
2022-12-25T12:29:24.656Z,100932.69
2022-12-25T12:32:04.725Z,100916.56
2022-12-25T12:34:43.785Z,100916.56
2022-12-25T12:37:24.764Z,100906.38
2022-12-25T12:39:59.106Z,100897.72
2022-12-25T12:42:40.476Z,100896.59
2022-12-25T12:45:22.569Z,100881.63
2022-12-25T12:47:57.496Z,100874.19
2022-12-25T12:50:35.184Z,100877.66
2022-12-25T12:53:31.415Z,100873.28
2022-12-25T12:56:13.512Z,100866.41
2022-12-25T12:58:50.935Z,100863.59
2022-12-25T13:01:44.810Z,100871.41
2022-12-25T13:04:54.885Z,100870.94
2022-12-25T13:07:55.392Z,100879.31
2022-12-25T13:10:33.611Z,100881.22
2022-12-25T13:13:16.993Z,100869.59
2022-12-25T13:15:53.727Z,100880.03
2022-12-25T13:18:28.404Z,100878.88
2022-12-25T13:21:08.194Z,100878.88
2022-12-25T13:23:43.115Z,100867.13
2022-12-25T13:26:21.155Z,100873.41
2022-12-25T13:28:56.214Z,100873.28
2022-12-25T13:31:34.043Z,100881.19
2022-12-25T13:34:18.429Z,100879.22
2022-12-25T13:36:52.945Z,100881.59
2022-12-25T13:39:31.872Z,100874.16
2022-12-25T13:42:10.704Z,100879.31
2022-12-25T13:44:49.448Z,100874.94
2022-12-25T13:47:34.667Z,100879.56
2022-12-25T13:50:21.419Z,100875.63
2022-12-25T13:52:56.250Z,100861.53
2022-12-25T13:55:31.150Z,100862.31
2022-12-25T13:58:06.669Z,100855.25
2022-12-25T14:00:47.732Z,100870.25
2022-12-25T14:03:24.914Z,100877.25
2022-12-25T14:06:03.775Z,100870.94
2022-12-25T14:08:37.674Z,100869.41
2022-12-25T14:11:15.510Z,100857.22
2022-12-25T14:13:52.122Z,100849.78
2022-12-25T14:16:27.238Z,100862.00
2022-12-25T14:19:01.915Z,100853.75
2022-12-25T14:21:39.192Z,100865.06
2022-12-25T14:24:14.619Z,100849.06
2022-12-25T14:26:49.125Z,100849.16
2022-12-25T14:29:28.042Z,100863.19
2022-12-25T14:32:05.635Z,100868.97
2022-12-25T14:34:38.955Z,100860.34
2022-12-25T14:37:19.157Z,100858.38
2022-12-25T14:40:00.740Z,100849.38
2022-12-25T14:42:36.364Z,100851.31
2022-12-25T14:45:28.204Z,100861.44
2022-12-25T14:48:04.442Z,100863.81
2022-12-25T14:50:42.951Z,100864.56
2022-12-25T14:53:24.298Z,100863.38
2022-12-25T14:56:00.625Z,100860.66
2022-12-25T14:58:41.744Z,100859.84
2022-12-25T15:01:24.796Z,100852.00
2022-12-25T15:04:08.816Z,100849.69
2022-12-25T15:06:43.159Z,100842.31
2022-12-25T15:09:19.199Z,100847.69
2022-12-25T15:11:55.568Z,100851.16
2022-12-25T15:14:31.999Z,100847.38
2022-12-25T15:17:05.472Z,100845.03
2022-12-25T15:19:39.595Z,100845.34
2022-12-25T15:22:14.442Z,100844.16
2022-12-25T15:24:54.670Z,100838.66
2022-12-25T15:27:48.842Z,100843.41
2022-12-25T15:30:32.741Z,100838.28
2022-12-25T15:33:08.865Z,100834.81
2022-12-25T15:35:46.360Z,100831.63
2022-12-25T15:38:38.987Z,100828.50
2022-12-25T15:41:54.920Z,100821.44
2022-12-25T15:44:37.305Z,100818.25
2022-12-25T15:47:21.429Z,100816.56
2022-12-25T15:50:01.143Z,100827.22
2022-12-25T15:52:48.496Z,100824.44
2022-12-25T15:55:31.648Z,100817.75
2022-12-25T15:58:10.674Z,100811.09
2022-12-25T16:00:47.870Z,100808.00
2022-12-25T16:03:23.026Z,100809.94
2022-12-25T16:05:56.792Z,100814.00
2022-12-25T16:08:32.582Z,100804.50
2022-12-25T16:11:16.288Z,100818.25
2022-12-25T16:13:49.835Z,100811.53
2022-12-25T16:16:33.474Z,100804.38
2022-12-25T16:19:11.632Z,100807.13
2022-12-25T16:21:52.639Z,100807.91
2022-12-25T16:24:27.310Z,100817.28
2022-12-25T16:27:01.057Z,100822.78
2022-12-25T16:29:37.850Z,100822.00
2022-12-25T16:32:13.193Z,100811.81
2022-12-25T16:34:50.528Z,100813.84
2022-12-25T16:37:27.374Z,100820.41
2022-12-25T16:40:01.152Z,100821.19
2022-12-25T16:42:42.388Z,100825.91
2022-12-25T16:45:22.027Z,100825.53
2022-12-25T16:48:03.479Z,100819.75
2022-12-25T16:50:47.651Z,100820.09
2022-12-25T16:53:23.238Z,100820.81
2022-12-25T16:56:06.408Z,100829.00
2022-12-25T16:58:39.406Z,100836.47
2022-12-25T17:01:14.523Z,100836.78
2022-12-25T17:03:48.216Z,100827.41
2022-12-25T17:06:24.314Z,100825.09
2022-12-25T17:08:58.540Z,100818.03
2022-12-25T17:11:32.651Z,100810.97
2022-12-25T17:14:09.039Z,100817.19
2022-12-25T17:16:42.322Z,100809.81
2022-12-25T17:19:22.231Z,100812.97
2022-12-25T17:21:57.440Z,100813.38
2022-12-25T17:24:30.467Z,100817.19
2022-12-25T17:27:08.570Z,100816.41
2022-12-25T17:29:42.703Z,100823.09
2022-12-25T17:32:16.111Z,100825.16
2022-12-25T17:34:49.121Z,100828.25
2022-12-25T17:37:24.960Z,100828.25
2022-12-25T17:39:57.987Z,100819.19
2022-12-25T17:42:30.948Z,100812.56
2022-12-25T17:45:04.288Z,100816.09
2022-12-25T17:47:37.348Z,100822.38
2022-12-25T17:50:10.135Z,100813.28
2022-12-25T17:52:44.361Z,100821.19
2022-12-25T17:55:17.522Z,100810.22
2022-12-25T17:57:51.122Z,100814.13
2022-12-25T18:00:24.065Z,100814.88
2022-12-25T18:02:58.163Z,100804.38
2022-12-25T18:05:31.231Z,100793.47
2022-12-25T18:08:05.535Z,100807.69
2022-12-25T18:10:42.344Z,100811.50
2022-12-25T18:13:15.458Z,100813.03
2022-12-25T18:15:48.573Z,100816.94
2022-12-25T18:18:21.424Z,100830.38
2022-12-25T18:20:55.101Z,100835.78
2022-12-25T18:23:29.892Z,100833.50
2022-12-25T18:26:03.600Z,100837.91
2022-12-25T18:28:36.827Z,100838.50
2022-12-25T18:31:10.472Z,100844.72
2022-12-25T18:33:44.576Z,100837.84
2022-12-25T18:36:22.583Z,100845.88
2022-12-25T18:38:57.972Z,100835.97
2022-12-25T18:41:31.210Z,100835.22
2022-12-25T18:44:04.794Z,100840.00
2022-12-25T18:46:38.063Z,100846.19
2022-12-25T18:49:11.611Z,100836.06
2022-12-25T18:51:44.463Z,100850.19
2022-12-25T18:54:19.344Z,100828.19
2022-12-25T18:56:53.647Z,100822.72
2022-12-25T18:59:27.101Z,100831.50
2022-12-25T19:02:00.427Z,100823.63
2022-12-25T19:04:36.004Z,100824.44
2022-12-25T19:07:09.242Z,100824.44
2022-12-25T19:09:46.514Z,100820.03
2022-12-25T19:12:19.651Z,100819.25
2022-12-25T19:14:52.996Z,100831.13
2022-12-25T19:17:31.555Z,100830.72
2022-12-25T19:20:06.957Z,100837.72
2022-12-25T19:22:39.847Z,100835.06
2022-12-25T19:25:14.348Z,100845.66
2022-12-25T19:27:49.585Z,100842.69
2022-12-25T19:30:22.471Z,100844.94
2022-12-25T19:32:55.257Z,100845.34
2022-12-25T19:35:30.295Z,100841.78
2022-12-25T19:38:03.135Z,100845.78
2022-12-25T19:40:39.480Z,100835.13
2022-12-25T19:43:13.681Z,100833.22
2022-12-25T19:45:46.442Z,100835.19
2022-12-25T19:48:19.251Z,100848.88
2022-12-25T19:50:54.940Z,100846.59
2022-12-25T19:53:29.412Z,100832.50
2022-12-25T19:56:04.224Z,100840.28
2022-12-25T19:58:37.522Z,100847.41
2022-12-25T20:01:14.675Z,100844.19
2022-12-25T20:03:48.482Z,100837.13
2022-12-25T20:06:24.998Z,100833.97
2022-12-25T20:08:59.775Z,100834.75
2022-12-25T20:11:35.698Z,100837.03
2022-12-25T20:14:09.352Z,100834.69
2022-12-25T20:16:42.474Z,100833.88
2022-12-25T20:19:16.321Z,100833.13
2022-12-25T20:21:49.356Z,100840.56
2022-12-25T20:24:22.101Z,100834.69
2022-12-25T20:26:59.246Z,100840.19
2022-12-25T20:29:32.514Z,100837.88
2022-12-25T20:32:05.999Z,100839.41
2022-12-25T20:34:39.134Z,100841.34
2022-12-25T20:37:12.101Z,100845.25
2022-12-25T20:39:48.141Z,100840.91
2022-12-25T20:42:22.984Z,100837.88
2022-12-25T20:44:57.229Z,100850.75
2022-12-25T20:47:30.332Z,100852.31
2022-12-25T20:50:03.652Z,100841.31
2022-12-25T20:52:37.046Z,100855.91
2022-12-25T20:55:10.295Z,100853.47
2022-12-25T20:57:44.751Z,100857.63
2022-12-25T21:00:17.837Z,100855.66
2022-12-25T21:02:51.268Z,100857.25
2022-12-25T21:05:24.834Z,100863.47
2022-12-25T21:07:58.334Z,100870.06
2022-12-25T21:10:31.487Z,100866.94
2022-12-25T21:13:06.105Z,100876.34
2022-12-25T21:15:45.236Z,100877.53
2022-12-25T21:18:20.480Z,100879.94
2022-12-25T21:20:55.920Z,100879.69
2022-12-25T21:23:33.221Z,100880.19
2022-12-25T21:26:15.181Z,100882.53
2022-12-25T21:28:51.609Z,100878.16
2022-12-25T21:31:28.588Z,100879.28
2022-12-25T21:34:01.289Z,100882.81
2022-12-25T21:36:35.957Z,100882.84
2022-12-25T21:39:09.757Z,100882.06
2022-12-25T21:41:43.663Z,100871.47
2022-12-25T21:44:18.948Z,100872.97
2022-12-25T21:46:52.432Z,100867.50
2022-12-25T21:49:43.603Z,100866.81
2022-12-25T21:52:16.931Z,100863.63
2022-12-25T21:54:52.944Z,100860.88
2022-12-25T21:57:26.363Z,100859.03
2022-12-25T22:00:01.410Z,100867.72
2022-12-25T22:02:35.038Z,100863.03
2022-12-25T22:05:09.513Z,100861.00
2022-12-25T22:07:43.129Z,100868.84
2022-12-25T22:10:18.344Z,100854.28
2022-12-25T22:13:09.296Z,100876.69
2022-12-25T22:16:02.654Z,100874.69
2022-12-25T22:19:05.301Z,100875.78
2022-12-25T22:21:44.008Z,100869.22
2022-12-25T22:24:17.575Z,100863.66
2022-12-25T22:26:53.049Z,100864.34
2022-12-25T22:29:26.400Z,100860.44
2022-12-25T22:32:01.635Z,100862.13
2022-12-25T22:34:35.163Z,100855.81
2022-12-25T22:37:10.180Z,100845.66
2022-12-25T22:39:43.432Z,100840.16
2022-12-25T22:42:18.881Z,100850.75
2022-12-25T22:44:54.430Z,100858.25
2022-12-25T22:47:34.898Z,100873.56
2022-12-25T22:50:12.523Z,100866.03
2022-12-25T22:52:47.398Z,100880.59
2022-12-25T22:55:21.865Z,100867.97
2022-12-25T22:57:55.997Z,100851.50
2022-12-25T23:00:29.458Z,100843.25
2022-12-25T23:03:04.224Z,100854.28
2022-12-25T23:05:37.698Z,100848.75
2022-12-25T23:08:11.005Z,100852.22
2022-12-25T23:10:43.929Z,100847.16
2022-12-25T23:13:33.918Z,100855.03
2022-12-25T23:16:07.158Z,100870.31
2022-12-25T23:18:59.011Z,100872.31
2022-12-25T23:21:49.998Z,100872.69
2022-12-25T23:24:40.274Z,100869.53
2022-12-25T23:27:13.991Z,100871.34
2022-12-25T23:29:48.930Z,100874.59
2022-12-25T23:32:25.326Z,100881.94
2022-12-25T23:34:59.926Z,100889.44
2022-12-25T23:37:37.510Z,100881.59
2022-12-25T23:40:11.837Z,100884.66
2022-12-25T23:42:46.210Z,100895.72
2022-12-25T23:45:21.561Z,100894.84
2022-12-25T23:47:54.416Z,100906.31
2022-12-25T23:50:28.744Z,100902.41
2022-12-25T23:53:01.927Z,100898.75
2022-12-25T23:55:43.014Z,100908.22
2022-12-25T23:58:18.698Z,100898.38
